Atwood, Tennessee
Current Conditions -  °F | °C
As of 4:53 PM on Saturday 20 Dec 2014 (Local Time) from KMKL Reporting Station
Clear Clear  
Wind Chill: 39°   Ceiling: Unl
Heat Index: 43°   Visibility: 10mi
Dew Point: 32°   Wind: 6mph
Humidity: 65%   Direction: 30°NNE
Pressure: 30.23"   Gusts: NA
Location:  35.97°N, 88.68°W
Report Text: KMKL 202253Z 03005KT 10SM CLR 06/00 A3023 RMK AO2 SLP239 T00610000
Loading
Personal Weather Stations






























Interactive Weather Map New forecast layout! Learn more

10-Day Weather Forecast

Advertisements
Track Severe Weather on mobile